Time;durP1;ratioP1;P1;durP2;ratioP2;P2;SDS_P1;SDS_P2;PMS_P1;PMS_P2;Temp;Humidity;BMP_temperature;BMP_pressure;BME280_temperature;BME280_humidity;BME280_pressure;Samples;Min_cycle;Max_cycle;Signal;HPM_P1;HPM_P2
2022/05/27 00:01:53;;;;;;;4.60;2.20;;;;;;;16.58;58.53;99441.50;2620935;54;20026;-66
2022/05/27 00:04:22;;;;;;;3.80;2.58;;;;;;;16.50;58.70;99432.94;2622103;39;20529;-65
2022/05/27 00:06:52;;;;;;;4.63;2.55;;;;;;;16.47;58.49;99436.03;2620827;54;20041;-65
2022/05/27 00:09:23;;;;;;;3.65;2.35;;;;;;;16.44;58.67;99431.91;2624189;54;20038;-65
2022/05/27 00:11:52;;;;;;;2.95;2.40;;;;;;;16.41;59.20;99426.19;2625304;54;20041;-64
2022/05/27 00:14:25;;;;;;;6.50;3.17;;;;;;;16.41;59.12;99428.88;2621635;54;20163;-65
2022/05/27 00:16:54;;;;;;;5.03;2.60;;;;;;;16.37;59.40;99427.66;2623639;54;20050;-65
2022/05/27 00:19:24;;;;;;;7.25;2.42;;;;;;;16.33;59.11;99422.78;2619600;54;20045;-65
2022/05/27 00:21:54;;;;;;;5.03;2.30;;;;;;;16.30;59.32;99425.84;2619493;54;20045;-65
2022/05/27 00:24:24;;;;;;;4.65;2.55;;;;;;;16.23;59.82;99424.25;2619282;54;20038;-64
2022/05/27 00:26:53;;;;;;;6.57;2.70;;;;;;;16.14;60.36;99423.69;2619854;54;20030;-66
2022/05/27 00:29:26;;;;;;;3.25;2.20;;;;;;;16.18;59.88;99419.56;2620450;54;20034;-66
2022/05/27 00:32:15;;;;;;;4.70;2.45;;;;;;;16.21;60.07;99418.34;2619560;54;20065;-64
2022/05/27 00:34:45;;;;;;;4.05;2.92;;;;;;;16.13;60.18;99419.41;2622862;54;20015;-65
2022/05/27 00:37:15;;;;;;;5.90;2.38;;;;;;;16.10;60.19;99415.31;2622622;54;20038;-65
2022/05/27 00:39:44;;;;;;;3.53;2.35;;;;;;;16.11;60.54;99413.44;2621589;54;20057;-64
2022/05/27 00:42:14;;;;;;;3.65;2.28;;;;;;;16.13;60.44;99415.91;2621258;54;20041;-65
2022/05/27 00:44:46;;;;;;;5.78;2.72;;;;;;;16.13;60.35;99419.41;2621514;54;20027;-64
2022/05/27 00:47:20;;;;;;;4.18;2.60;;;;;;;16.10;60.45;99414.50;2622648;54;20033;-64
2022/05/27 00:49:54;;;;;;;5.60;2.75;;;;;;;16.06;60.90;99415.94;2621277;54;20034;-64
2022/05/27 00:52:27;;;;;;;2.65;2.40;;;;;;;16.04;61.14;99407.31;2622511;54;20054;-66
2022/05/27 00:54:56;;;;;;;4.38;2.53;;;;;;;16.03;60.94;99411.84;2622001;54;20538;-65
2022/05/27 00:57:33;;;;;;;6.30;3.67;;;;;;;16.00;61.15;99398.97;2622140;54;20035;-67
2022/05/27 01:00:12;;;;;;;6.22;2.72;;;;;;;16.02;60.94;99396.88;2621211;46;20022;-64
2022/05/27 01:02:43;;;;;;;5.30;3.30;;;;;;;15.97;61.16;99399.38;2621305;54;20653;-65
2022/05/27 01:05:15;;;;;;;6.68;3.20;;;;;;;15.98;61.38;99394.84;2620782;54;20026;-65
2022/05/27 01:07:45;;;;;;;3.65;2.90;;;;;;;15.98;61.24;99393.00;2620460;54;20038;-65
2022/05/27 01:10:18;;;;;;;9.80;3.22;;;;;;;15.99;61.22;99393.81;2621178;54;20145;-66
2022/05/27 01:13:02;;;;;;;7.22;3.28;;;;;;;15.98;61.47;99390.34;2619791;54;20027;-66
2022/05/27 01:15:46;;;;;;;3.92;3.13;;;;;;;15.92;61.54;99385.03;2618892;54;20035;-65
2022/05/27 01:20:18;;;;;;;5.05;3.38;;;;;;;15.83;61.56;99390.59;2618938;54;20030;-65
2022/05/27 01:21:26;;;;;;;6.10;3.37;;;;;;;15.82;62.04;99386.31;2619603;54;20126;-66
2022/05/27 01:24:33;;;;;;;4.88;3.08;;;;;;;15.78;61.87;99397.63;2619780;54;20039;-66
2022/05/27 01:27:25;;;;;;;5.32;3.70;;;;;;;15.67;62.63;99401.75;2620601;54;20030;-66
2022/05/27 01:30:16;;;;;;;6.45;4.15;;;;;;;15.61;62.79;99400.72;2621363;54;20031;-65
2022/05/27 01:32:56;;;;;;;5.22;3.25;;;;;;;15.60;62.52;99395.63;2622001;54;20026;-65
2022/05/27 01:35:41;;;;;;;6.90;3.75;;;;;;;15.51;63.36;99396.84;2620754;47;20022;-66
2022/05/27 01:38:17;;;;;;;8.07;3.70;;;;;;;15.49;63.31;99390.94;2620485;54;20031;-65
2022/05/27 01:40:54;;;;;;;6.88;3.47;;;;;;;15.50;63.19;99384.56;2622292;54;20042;-67
2022/05/27 01:43:32;;;;;;;5.22;3.50;;;;;;;15.45;63.45;99384.38;2622072;54;20049;-66
2022/05/27 01:46:10;;;;;;;7.30;3.67;;;;;;;15.37;63.76;99382.75;2621650;51;20022;-66
2022/05/27 01:48:49;;;;;;;5.50;3.75;;;;;;;15.38;64.03;99383.56;2621116;54;20050;-66
2022/05/27 01:51:25;;;;;;;7.10;4.13;;;;;;;15.35;64.03;99382.16;2621256;54;20038;-65
2022/05/27 01:54:02;;;;;;;6.82;3.88;;;;;;;15.33;64.25;99382.34;2621169;54;20054;-66
2022/05/27 01:56:37;;;;;;;6.82;3.97;;;;;;;15.31;64.25;99378.28;2622421;39;20422;-66
2022/05/27 01:59:12;;;;;;;11.50;4.63;;;;;;;15.18;64.66;99373.78;2622771;54;20086;-66
2022/05/27 02:01:48;;;;;;;7.18;4.47;;;;;;;15.21;64.56;99381.38;2623800;54;20039;-65
2022/05/27 02:04:23;;;;;;;7.65;4.05;;;;;;;15.19;64.72;99374.63;2623899;54;20029;-66
2022/05/27 02:06:56;;;;;;;7.97;4.82;;;;;;;15.17;64.35;99379.31;2623291;54;20031;-64
2022/05/27 02:09:31;;;;;;;5.18;4.40;;;;;;;15.11;65.00;99379.16;2623288;47;20037;-65
2022/05/27 02:12:07;;;;;;;9.23;5.28;;;;;;;15.06;64.99;99378.09;2622241;54;20030;-65
2022/05/27 02:14:42;;;;;;;7.35;5.40;;;;;;;15.05;64.83;99379.16;2622456;54;20038;-65
2022/05/27 02:17:19;;;;;;;7.15;4.63;;;;;;;15.10;64.71;99377.50;2620694;54;20038;-65
2022/05/27 02:19:54;;;;;;;7.60;5.13;;;;;;;15.13;65.00;99373.59;2619988;54;20030;-65
2022/05/27 02:22:27;;;;;;;5.95;5.15;;;;;;;15.08;64.85;99376.06;2620325;54;20035;-64
2022/05/27 02:25:01;;;;;;;10.32;5.55;;;;;;;15.06;64.66;99376.28;2621272;54;20030;-65
2022/05/27 02:27:37;;;;;;;11.15;6.00;;;;;;;15.01;65.32;99383.25;2621228;54;20035;-65
2022/05/27 02:30:11;;;;;;;6.50;5.30;;;;;;;14.94;65.21;99387.75;2623997;39;20399;-66
2022/05/27 02:32:48;;;;;;;8.32;5.75;;;;;;;14.91;65.50;99386.34;2624033;54;20037;-66
2022/05/27 02:35:23;;;;;;;8.98;5.93;;;;;;;14.91;65.59;99382.88;2624773;54;20015;-64
2022/05/27 02:37:56;;;;;;;8.32;5.70;;;;;;;14.92;65.34;99379.97;2625306;54;20037;-65
2022/05/27 02:40:31;;;;;;;10.40;6.00;;;;;;;14.97;65.56;99382.03;2624714;54;20763;-65
2022/05/27 02:43:12;;;;;;;9.27;6.22;;;;;;;14.99;65.67;99372.00;2622725;54;20114;-65
2022/05/27 02:45:48;;;;;;;8.82;6.10;;;;;;;14.98;65.36;99371.19;2622209;47;20026;-65
2022/05/27 02:48:27;;;;;;;8.45;6.30;;;;;;;15.02;65.72;99366.25;2622771;54;20041;-65
2022/05/27 02:51:05;;;;;;;7.97;6.07;;;;;;;15.06;65.52;99372.78;2623107;54;20035;-65
2022/05/27 02:53:44;;;;;;;9.45;6.53;;;;;;;15.16;65.32;99381.19;2622474;47;20061;-64
2022/05/27 02:56:18;;;;;;;8.30;5.85;;;;;;;15.09;64.80;99372.38;2622731;54;20530;-65
2022/05/27 02:58:49;;;;;;;10.77;6.40;;;;;;;15.08;65.31;99370.75;2622486;54;20538;-65
2022/05/27 03:01:19;;;;;;;7.47;6.35;;;;;;;15.07;64.86;99374.44;2622465;46;20585;-64
2022/05/27 03:03:52;;;;;;;7.65;6.53;;;;;;;15.08;65.23;99373.41;2622578;54;20035;-66
2022/05/27 03:06:37;;;;;;;8.95;6.60;;;;;;;15.07;65.17;99369.94;2622928;54;20019;-64
2022/05/27 03:09:11;;;;;;;7.75;6.07;;;;;;;15.06;65.09;99368.31;2623465;54;20041;-65
2022/05/27 03:11:51;;;;;;;6.63;5.93;;;;;;;15.02;64.98;99372.41;2622464;54;20042;-65
2022/05/27 03:14:50;;;;;;;9.77;6.18;;;;;;;14.96;65.08;99375.88;2622616;54;20034;-65
2022/05/27 03:17:35;;;;;;;7.95;5.85;;;;;;;14.91;65.23;99378.34;2621512;54;20543;-67
2022/05/27 03:20:22;;;;;;;;;;;;;;;14.98;65.39;99381.00;2623301;54;20037;-64
2022/05/27 03:23:09;;;;;;;13.55;6.82;;;;;;;15.03;65.09;99376.69;2621575;54;19946;-65
2022/05/27 03:25:46;;;;;;;8.20;6.22;;;;;;;14.96;65.40;99370.56;2622395;54;20535;-64
2022/05/27 03:28:24;;;;;;;13.05;6.88;;;;;;;14.99;65.06;99370.16;2623199;39;20463;-66
2022/05/27 03:30:59;;;;;;;8.45;7.13;;;;;;;15.00;65.40;99377.09;2622853;54;20034;-64
2022/05/27 03:33:37;;;;;;;7.03;6.22;;;;;;;15.06;65.18;99364.78;2623048;39;20425;-66
2022/05/27 03:36:15;;;;;;;7.80;6.22;;;;;;;15.04;64.87;99361.53;2622218;47;20026;-64
2022/05/27 03:38:55;;;;;;;6.97;6.18;;;;;;;15.05;64.64;99366.66;2622468;47;20022;-66
2022/05/27 03:41:28;;;;;;;7.93;6.25;;;;;;;15.05;64.79;99365.84;2623285;47;20026;-65
2022/05/27 03:43:58;;;;;;;9.63;6.25;;;;;;;15.03;64.68;99376.69;2623411;54;20034;-65
2022/05/27 03:46:30;;;;;;;8.30;6.80;;;;;;;15.05;65.11;99381.81;2623760;54;20134;-65
2022/05/27 03:49:00;;;;;;;9.15;6.60;;;;;;;15.01;64.75;99386.72;2623745;54;20771;-66
2022/05/27 03:51:33;;;;;;;8.00;7.03;;;;;;;15.01;64.84;99377.91;2623218;54;20026;-67
2022/05/27 03:54:09;;;;;;;8.30;7.47;;;;;;;15.01;65.05;99378.72;2621897;54;20573;-65
2022/05/27 03:56:41;;;;;;;8.35;6.93;;;;;;;15.08;64.69;99384.06;2622540;54;20041;-65
2022/05/27 03:59:13;;;;;;;11.73;8.05;;;;;;;15.09;64.71;99388.34;2622046;54;20033;-64
2022/05/27 04:01:45;;;;;;;7.57;6.78;;;;;;;15.09;64.92;99396.34;2621365;46;20038;-66
2022/05/27 04:04:19;;;;;;;7.53;6.72;;;;;;;15.12;64.73;99385.28;2623041;54;20035;-65
2022/05/27 04:06:49;;;;;;;10.60;7.90;;;;;;;15.16;64.90;99380.38;2623130;54;20031;-68
2022/05/27 04:09:23;;;;;;;10.82;7.03;;;;;;;15.13;64.31;99394.91;2623413;54;20039;-65
2022/05/27 04:11:54;;;;;;;7.25;5.93;;;;;;;15.09;64.53;99388.34;2624301;39;20578;-66
2022/05/27 04:14:23;;;;;;;7.72;6.72;;;;;;;15.10;64.99;99389.97;2622190;54;20038;-67
2022/05/27 04:17:27;;;;;;;8.65;7.03;;;;;;;15.10;64.87;99393.50;2621002;47;20065;-66
2022/05/27 04:19:43;;;;;;;7.55;6.75;;;;;;;15.10;64.22;99387.31;2622687;47;20022;-66
2022/05/27 04:22:13;;;;;;;11.07;6.78;;;;;;;15.15;64.55;99397.38;2623096;54;20073;-66
2022/05/27 04:24:45;;;;;;;10.75;6.32;;;;;;;15.18;64.52;99403.06;2623557;54;20030;-65
2022/05/27 04:27:17;;;;;;;10.52;7.85;;;;;;;15.18;64.25;99399.59;2622417;54;20030;-64
2022/05/27 04:29:49;;;;;;;10.88;7.10;;;;;;;15.08;64.69;99400.03;2622534;54;20045;-64
2022/05/27 04:32:20;;;;;;;7.88;6.30;;;;;;;15.07;64.54;99398.41;2621796;54;20534;-64
2022/05/27 04:34:50;;;;;;;7.93;6.95;;;;;;;15.15;64.46;99408.03;2621545;54;20026;-64
2022/05/27 04:37:22;;;;;;;7.75;6.88;;;;;;;15.14;64.34;99412.50;2622457;54;20038;-66
2022/05/27 04:39:54;;;;;;;7.18;6.45;;;;;;;15.24;64.73;99423.56;2623162;54;20061;-65
2022/05/27 04:42:25;;;;;;;7.18;6.20;;;;;;;15.28;63.87;99418.66;2623921;46;20046;-64
2022/05/27 04:44:55;;;;;;;8.70;6.00;;;;;;;15.28;64.17;99418.66;2622700;47;20038;-63
2022/05/27 04:47:25;;;;;;;7.13;6.40;;;;;;;15.20;64.37;99408.22;2622961;46;20030;-64
2022/05/27 04:49:56;;;;;;;8.48;6.82;;;;;;;15.24;64.51;99415.59;2623271;47;20030;-64
2022/05/27 04:52:28;;;;;;;7.43;6.18;;;;;;;15.34;64.43;99412.47;2622535;54;20042;-66
2022/05/27 04:55:06;;;;;;;8.43;6.68;;;;;;;15.41;63.78;99407.97;2622969;39;20356;-64
2022/05/27 04:57:38;;;;;;;8.68;6.53;;;;;;;15.41;63.84;99409.81;2621634;46;20034;-66
2022/05/27 05:00:13;;;;;;;9.25;6.40;;;;;;;15.48;63.65;99415.94;2621143;54;20034;-65
2022/05/27 05:02:43;;;;;;;7.47;6.07;;;;;;;15.64;63.62;99418.16;2619401;54;20038;-65
2022/05/27 05:05:15;;;;;;;8.85;5.95;;;;;;;15.71;62.77;99413.63;2619078;54;20019;-66
2022/05/27 05:07:46;;;;;;;6.90;5.60;;;;;;;15.79;62.97;99401.91;2619492;54;20034;-65
2022/05/27 05:10:22;;;;;;;10.07;6.03;;;;;;;15.91;62.16;99405.53;2619878;54;20033;-67
2022/05/27 05:12:53;;;;;;;8.20;5.57;;;;;;;15.90;61.99;99395.91;2622567;54;20019;-69
2022/05/27 05:15:24;;;;;;;6.25;5.55;;;;;;;15.90;61.89;99389.78;2620812;39;20431;-66
2022/05/27 05:17:54;;;;;;;8.02;5.25;;;;;;;15.80;62.07;99395.56;2619786;54;20034;-65
2022/05/27 05:20:27;;;;;;;7.90;5.28;;;;;;;15.92;61.94;99401.03;2623518;47;20095;-65
2022/05/27 05:22:57;;;;;;;6.45;5.38;;;;;;;15.93;61.44;99394.69;2623278;54;20042;-64
2022/05/27 05:25:29;;;;;;;8.13;5.05;;;;;;;15.86;61.38;99400.03;2622804;47;20026;-65
2022/05/27 05:27:59;;;;;;;7.15;4.60;;;;;;;15.88;61.71;99398.00;2622270;54;20041;-63
2022/05/27 05:30:29;;;;;;;6.18;4.78;;;;;;;15.92;61.40;99403.69;2622387;54;20042;-66
2022/05/27 05:32:59;;;;;;;6.95;4.47;;;;;;;15.95;61.06;99404.09;2622277;39;20502;-65
2022/05/27 05:35:29;;;;;;;4.95;4.40;;;;;;;16.00;61.02;99395.44;2622127;54;20022;-66
2022/05/27 05:37:59;;;;;;;8.38;4.40;;;;;;;16.04;61.41;99402.84;2621926;54;20022;-67
2022/05/27 05:40:31;;;;;;;4.53;4.13;;;;;;;16.18;60.94;99394.75;2622583;39;20433;-66
2022/05/27 05:43:01;;;;;;;5.97;4.35;;;;;;;16.28;60.63;99400.41;2621551;54;20049;-66
2022/05/27 05:45:32;;;;;;;4.70;4.03;;;;;;;16.41;60.62;99399.50;2620287;54;20034;-65
2022/05/27 05:48:01;;;;;;;4.57;4.05;;;;;;;16.42;59.83;99401.16;2620012;54;20046;-65
2022/05/27 05:50:32;;;;;;;4.43;4.03;;;;;;;16.53;60.44;99398.63;2621172;39;20439;-67
2022/05/27 05:53:03;;;;;;;5.38;4.40;;;;;;;16.58;60.14;99395.31;2620920;54;20042;-66
2022/05/27 05:55:35;;;;;;;4.97;3.90;;;;;;;16.66;60.17;99396.88;2619989;54;20057;-65
2022/05/27 05:58:06;;;;;;;6.40;4.22;;;;;;;16.69;60.16;99391.91;2619860;54;20023;-65
2022/05/27 06:00:36;;;;;;;4.70;4.05;;;;;;;16.71;59.92;99394.38;2619100;54;20068;-66
2022/05/27 06:03:06;;;;;;;6.68;3.55;;;;;;;16.76;59.37;99397.25;2619974;39;20677;-66
2022/05/27 06:05:37;;;;;;;5.28;3.60;;;;;;;16.68;59.64;99398.28;2619901;47;20022;-66
2022/05/27 06:08:07;;;;;;;4.00;3.25;;;;;;;16.69;59.67;99397.25;2620188;54;20038;-65
2022/05/27 06:10:39;;;;;;;3.53;2.80;;;;;;;16.58;58.58;99398.78;2620022;47;20053;-66
2022/05/27 06:13:09;;;;;;;4.35;2.40;;;;;;;16.54;58.41;99391.44;2620000;54;20034;-64
2022/05/27 06:15:39;;;;;;;4.45;2.80;;;;;;;16.46;59.15;99389.84;2620655;39;20449;-65
2022/05/27 06:18:13;;;;;;;4.80;3.13;;;;;;;16.39;59.17;99391.72;2620459;54;20045;-64
2022/05/27 06:20:42;;;;;;;;;;;;;;;16.32;59.49;99390.94;2621098;54;20034;-66
2022/05/27 06:23:13;;;;;;;4.80;3.60;;;;;;;16.31;59.45;99400.81;2621494;54;19956;-67
2022/05/27 06:25:45;;;;;;;5.35;3.40;;;;;;;16.31;59.92;99397.31;2621855;54;20129;-66
2022/05/27 06:36:22;;;;;;;4.47;4.03;;;;;;;16.09;60.97;99410.19;2623113;54;20038;-65
2022/05/27 06:38:53;;;;;;;7.43;4.40;;;;;;;16.12;61.14;99407.06;2622008;54;20031;-63
2022/05/27 06:41:26;;;;;;;5.28;4.47;;;;;;;16.03;61.40;99411.03;2622359;54;20065;-64
2022/05/27 06:43:58;;;;;;;5.72;4.50;;;;;;;16.02;62.18;99412.88;2622752;54;20551;-65
2022/05/27 06:46:28;;;;;;;6.32;4.65;;;;;;;16.06;62.35;99411.41;2622493;46;20022;-64
2022/05/27 06:48:58;;;;;;;7.30;4.90;;;;;;;16.22;61.80;99414.63;2621744;54;20625;-64
2022/05/27 06:51:29;;;;;;;5.72;4.68;;;;;;;16.29;61.98;99418.91;2622587;54;20558;-65
2022/05/27 06:53:59;;;;;;;10.32;5.03;;;;;;;16.29;61.58;99423.41;2622024;54;20034;-66
2022/05/27 06:56:31;;;;;;;5.70;4.65;;;;;;;16.25;61.60;99427.53;2622369;47;20027;-66
2022/05/27 06:59:01;;;;;;;7.53;4.50;;;;;;;16.16;61.97;99418.13;2622244;47;20033;-64
2022/05/27 07:01:30;;;;;;;5.00;4.35;;;;;;;16.20;62.17;99411.34;2622431;47;20030;-64
2022/05/27 07:04:00;;;;;;;6.53;4.40;;;;;;;16.24;62.12;99426.69;2623819;54;20030;-67
2022/05/27 07:06:34;;;;;;;5.38;4.38;;;;;;;16.27;61.93;99425.47;2623435;54;20592;-65
2022/05/27 07:09:05;;;;;;;4.60;3.90;;;;;;;16.33;61.90;99428.09;2623326;39;20181;-65
2022/05/27 07:11:39;;;;;;;5.80;4.93;;;;;;;16.33;61.86;99424.63;2622835;54;20117;-64
2022/05/27 07:14:09;;;;;;;6.88;5.10;;;;;;;16.31;62.17;99430.16;2621850;47;20538;-65
2022/05/27 07:16:39;;;;;;;6.22;5.57;;;;;;;16.18;61.78;99432.91;2621871;54;20550;-67
2022/05/27 07:19:29;;;;;;;7.25;5.88;;;;;;;16.13;62.46;99432.75;2622811;46;20584;-64
2022/05/27 07:21:59;;;;;;;5.82;5.32;;;;;;;16.16;62.49;99436.81;2623518;54;20098;-66
2022/05/27 07:24:28;;;;;;;6.30;5.18;;;;;;;16.12;62.42;99439.09;2623751;54;20034;-67
2022/05/27 07:27:00;;;;;;;8.48;4.97;;;;;;;15.99;62.76;99439.97;2622628;46;20081;-65
2022/05/27 07:29:30;;;;;;;6.68;5.32;;;;;;;15.92;63.30;99436.53;2622168;54;20534;-65
2022/05/27 07:32:00;;;;;;;5.85;5.25;;;;;;;16.04;62.99;99442.00;2623533;54;20029;-66
2022/05/27 07:34:30;;;;;;;4.82;4.25;;;;;;;16.04;63.04;99431.31;2624495;54;20050;-67
2022/05/27 07:37:00;;;;;;;4.53;4.13;;;;;;;16.10;62.77;99444.63;2622101;46;20042;-65
2022/05/27 07:39:30;;;;;;;6.40;4.63;;;;;;;16.07;62.57;99436.25;2620670;54;20034;-64
2022/05/27 07:42:02;;;;;;;6.05;4.65;;;;;;;16.07;62.55;99439.72;2620865;54;20034;-64
2022/05/27 07:44:34;;;;;;;6.43;4.80;;;;;;;16.08;62.55;99440.53;2621617;54;20542;-64
2022/05/27 07:47:05;;;;;;;5.38;4.82;;;;;;;16.23;62.05;99442.94;2621342;54;20039;-64
2022/05/27 07:49:35;;;;;;;5.70;4.95;;;;;;;16.41;61.81;99444.88;2621515;54;20046;-66
2022/05/27 07:52:07;;;;;;;6.22;5.63;;;;;;;16.56;61.62;99445.41;2620008;54;20085;-65
2022/05/27 07:54:37;;;;;;;5.85;5.35;;;;;;;16.61;61.12;99448.22;2619939;54;20049;-67
2022/05/27 07:57:23;;;;;;;6.85;6.25;;;;;;;16.54;61.49;99453.63;2620437;54;20027;-66
2022/05/27 07:59:59;;;;;;;7.70;7.00;;;;;;;16.60;60.80;99444.75;2619539;54;20044;-65
2022/05/27 08:02:29;;;;;;;9.40;6.28;;;;;;;16.75;61.21;99439.13;2618645;54;20033;-66
2022/05/27 08:05:00;;;;;;;6.90;6.22;;;;;;;16.90;60.15;99436.16;2619342;51;20026;-64
2022/05/27 08:07:30;;;;;;;7.35;6.00;;;;;;;16.97;60.21;99438.75;2619785;47;20042;-63
2022/05/27 08:10:00;;;;;;;5.80;5.30;;;;;;;17.11;59.56;99437.63;2619125;54;20142;-65
2022/05/27 08:12:32;;;;;;;5.57;4.72;;;;;;;17.26;58.78;99430.06;2618800;47;20042;-63
2022/05/27 08:15:02;;;;;;;6.13;4.68;;;;;;;17.23;58.74;99430.50;2619261;47;20034;-66
2022/05/27 08:17:31;;;;;;;5.20;4.70;;;;;;;17.32;58.32;99434.53;2619551;54;20026;-65
2022/05/27 08:20:01;;;;;;;4.93;4.43;;;;;;;17.34;57.91;99431.63;2620751;54;20113;-65
2022/05/27 08:22:31;;;;;;;7.13;4.57;;;;;;;17.30;58.28;99431.25;2620590;47;20546;-64
2022/05/27 08:25:00;;;;;;;5.45;4.18;;;;;;;17.28;57.64;99438.69;2621112;39;20446;-64
2022/05/27 08:27:34;;;;;;;4.82;4.43;;;;;;;17.29;57.75;99439.50;2621278;54;20033;-64
2022/05/27 08:30:03;;;;;;;4.78;4.38;;;;;;;17.41;57.72;99444.94;2621307;51;20029;-64
2022/05/27 08:32:33;;;;;;;6.13;4.72;;;;;;;17.49;57.60;99439.28;2621835;54;20039;-64
2022/05/27 08:40:47;;;;;;;4.72;3.88;;;;;;;17.30;57.52;99441.13;2624993;54;20073;-65
2022/05/27 08:43:30;;;;;;;7.18;4.50;;;;;;;17.06;58.42;99432.94;2625472;54;20030;-66
2022/05/27 08:46:08;;;;;;;5.70;4.40;;;;;;;17.19;58.37;99434.66;2624388;54;20031;-64
2022/05/27 08:48:43;;;;;;;3.90;3.45;;;;;;;17.20;57.78;99432.81;2623765;54;20042;-64
2022/05/27 08:51:39;;;;;;;4.28;3.92;;;;;;;17.13;58.44;99427.50;2624247;54;20029;-66
2022/05/27 08:54:12;;;;;;;4.70;3.65;;;;;;;17.07;58.09;99442.56;2624144;54;20026;-64
2022/05/27 08:59:37;;;;;;;5.03;4.45;;;;;;;17.09;58.39;99427.13;2621557;49;20053;-64
2022/05/27 09:02:14;;;;;;;5.70;4.05;;;;;;;17.18;58.90;99438.34;2620302;54;20105;-65
2022/05/27 09:04:55;;;;;;;6.15;4.22;;;;;;;17.29;58.13;99440.31;2619209;39;20431;-65
2022/05/27 09:07:40;;;;;;;4.47;3.83;;;;;;;17.30;58.24;99446.47;2619815;54;20042;-64
2022/05/27 09:10:14;;;;;;;4.55;4.10;;;;;;;17.38;58.51;99438.16;2620126;54;20026;-65
2022/05/27 09:12:50;;;;;;;4.55;4.15;;;;;;;17.44;57.84;99450.66;2620144;54;20045;-66
2022/05/27 09:15:38;;;;;;;5.93;3.67;;;;;;;17.24;58.05;99448.19;2620613;54;20053;-66
2022/05/27 09:18:16;;;;;;;4.38;3.35;;;;;;;17.16;58.37;99450.31;2620821;47;20093;-66
2022/05/27 09:20:52;;;;;;;4.43;3.05;;;;;;;17.14;58.71;99450.50;2620960;54;20035;-66
2022/05/27 09:23:40;;;;;;;3.40;3.10;;;;;;;17.05;58.73;99457.19;2620283;47;20911;-64
2022/05/27 09:26:19;;;;;;;3.50;3.03;;;;;;;17.03;58.73;99451.25;2620759;54;20030;-65
2022/05/27 09:28:59;;;;;;;3.67;2.63;;;;;;;17.17;58.96;99441.25;2620548;54;20065;-66
2022/05/27 09:31:37;;;;;;;3.88;3.20;;;;;;;17.41;58.33;99447.59;2621082;54;20034;-64
2022/05/27 09:34:11;;;;;;;5.75;2.40;;;;;;;17.48;58.02;99451.84;2621568;54;20034;-65
2022/05/27 09:36:44;;;;;;;4.50;2.65;;;;;;;17.36;58.13;99448.28;2621499;54;20026;-64
2022/05/27 09:39:17;;;;;;;2.53;2.20;;;;;;;17.38;58.06;99448.84;2621577;54;20038;-65
2022/05/27 09:41:54;;;;;;;2.53;2.33;;;;;;;17.46;58.09;99447.75;2620579;54;20574;-66
2022/05/27 09:44:29;;;;;;;2.70;2.00;;;;;;;17.67;57.67;99446.50;2620194;54;20034;-64
2022/05/27 09:47:02;;;;;;;2.83;2.20;;;;;;;17.83;57.29;99444.06;2619788;54;20042;-66
2022/05/27 09:49:32;;;;;;;3.10;2.45;;;;;;;17.87;57.24;99446.28;2619677;54;20042;-65
2022/05/27 09:52:02;;;;;;;6.78;2.70;;;;;;;17.94;57.01;99447.03;2620201;54;20031;-64
2022/05/27 09:54:38;;;;;;;7.60;2.22;;;;;;;18.01;56.52;99448.59;2619383;54;20142;-64
2022/05/27 09:57:25;;;;;;;2.20;1.98;;;;;;;17.80;57.02;99449.06;2620692;54;20629;-64
2022/05/27 09:59:57;;;;;;;3.22;2.03;;;;;;;17.56;57.56;99446.22;2621236;54;20050;-65
2022/05/27 10:02:36;;;;;;;3.67;2.10;;;;;;;17.51;57.57;99453.25;2620776;47;20069;-65
2022/05/27 10:05:09;;;;;;;1.70;1.60;;;;;;;17.50;57.69;99452.44;2622676;31;20518;-66
2022/05/27 10:07:42;;;;;;;5.45;2.60;;;;;;;17.66;57.52;99439.53;2620919;54;20038;-65
2022/05/27 10:10:28;;;;;;;2.80;2.03;;;;;;;17.72;56.96;99447.47;2621607;47;20027;-64
2022/05/27 10:13:00;;;;;;;5.18;2.40;;;;;;;17.72;56.86;99434.09;2620095;54;20030;-64
2022/05/27 10:15:37;;;;;;;3.25;2.22;;;;;;;17.90;56.55;99437.84;2622558;39;20569;-64
2022/05/27 10:18:21;;;;;;;4.35;2.63;;;;;;;18.11;56.14;99442.69;2621223;54;20037;-64
2022/05/27 10:20:55;;;;;;;3.33;2.45;;;;;;;18.29;56.06;99436.50;2620978;54;20142;-65
2022/05/27 10:23:26;;;;;;;;;;;;;;;18.38;56.07;99437.00;2621431;54;20029;-65
2022/05/27 10:26:01;;;;;;;2.80;2.10;;;;;;;18.46;55.83;99439.34;2620383;54;19938;-65
2022/05/27 10:28:39;;;;;;;5.00;2.78;;;;;;;18.63;55.27;99440.31;2620916;54;20029;-67
2022/05/27 10:31:19;;;;;;;4.97;2.55;;;;;;;18.75;54.83;99443.06;2620705;54;20030;-66
2022/05/27 10:33:53;;;;;;;3.50;3.20;;;;;;;18.37;54.79;99448.72;2621512;39;20426;-66
2022/05/27 10:36:36;;;;;;;3.20;3.00;;;;;;;18.00;55.51;99455.00;2620471;47;20126;-67
2022/05/27 10:39:08;;;;;;;5.63;3.58;;;;;;;17.64;56.16;99445.09;2620665;47;20031;-65
2022/05/27 10:42:01;;;;;;;8.90;3.03;;;;;;;17.62;56.40;99449.84;2622756;39;20438;-64
2022/05/27 10:44:47;;;;;;;3.33;3.03;;;;;;;17.41;57.08;99447.59;2622996;39;20411;-64
2022/05/27 10:47:28;;;;;;;3.55;2.53;;;;;;;17.32;57.61;99452.41;2622769;39;20427;-64
2022/05/27 10:50:13;;;;;;;4.72;3.28;;;;;;;17.26;57.91;99459.44;2620582;47;20203;-64
2022/05/27 10:53:02;;;;;;;5.78;4.07;;;;;;;17.21;57.68;99459.28;2620547;54;20049;-65
2022/05/27 10:55:45;;;;;;;4.75;3.67;;;;;;;17.01;58.58;99459.47;2620929;39;20713;-64
2022/05/27 11:04:32;;;;;;;3.33;3.10;;;;;;;16.93;59.26;99462.41;2620248;54;20034;-67
2022/05/27 11:07:20;;;;;;;4.18;3.47;;;;;;;16.93;59.49;99472.28;2619816;54;20038;-65
2022/05/27 11:10:04;;;;;;;4.70;3.10;;;;;;;16.84;59.57;99458.38;2618858;47;20030;-64
2022/05/27 11:15:42;;;;;;;5.60;3.10;;;;;;;16.75;59.90;99463.16;2618902;54;20569;-66
2022/05/27 11:18:20;;;;;;;4.65;3.28;;;;;;;16.79;60.47;99453.69;2619597;54;20562;-64
2022/05/27 11:21:12;;;;;;;3.47;2.63;;;;;;;16.69;60.75;99463.16;2619624;39;20424;-66
2022/05/27 11:24:07;;;;;;;4.55;3.15;;;;;;;16.63;60.88;99456.03;2619927;54;20038;-65
2022/05/27 11:26:47;;;;;;;4.80;3.50;;;;;;;16.67;61.32;99455.38;2619284;47;20069;-64
2022/05/27 11:29:52;;;;;;;3.83;3.40;;;;;;;16.67;61.20;99451.91;2620376;54;20038;-66
2022/05/27 11:32:37;;;;;;;3.67;3.35;;;;;;;16.78;60.97;99449.41;2621977;54;20042;-67
2022/05/27 11:35:16;;;;;;;4.18;3.78;;;;;;;16.76;61.01;99456.78;2622707;54;20030;-66
2022/05/27 11:37:55;;;;;;;4.85;4.45;;;;;;;16.95;60.79;99460.34;2622197;54;20053;-66
2022/05/27 11:40:35;;;;;;;4.80;4.40;;;;;;;17.06;60.36;99454.31;2622768;54;20026;-66
2022/05/27 11:43:47;;;;;;;4.80;4.40;;;;;;;17.33;59.86;99457.53;2622901;39;20431;-66
2022/05/27 11:46:41;;;;;;;7.00;4.15;;;;;;;17.46;59.31;99453.91;2621654;54;20037;-66
2022/05/27 11:49:33;;;;;;;5.78;3.60;;;;;;;17.51;59.19;99455.91;2620768;54;20030;-64
2022/05/27 11:52:14;;;;;;;3.78;3.45;;;;;;;17.53;58.83;99448.50;2620363;54;20041;-65
2022/05/27 11:55:09;;;;;;;3.67;3.13;;;;;;;17.71;58.97;99437.78;2621671;54;20041;-64
2022/05/27 11:57:52;;;;;;;6.10;3.40;;;;;;;17.77;58.35;99449.50;2621166;54;20026;-66
2022/05/27 12:00:26;;;;;;;6.07;3.20;;;;;;;17.63;58.87;99429.25;2621294;54;20053;-66
2022/05/27 12:03:00;;;;;;;3.80;3.50;;;;;;;17.78;58.53;99437.75;2621087;54;20023;-65
2022/05/27 12:05:36;;;;;;;3.42;3.15;;;;;;;17.91;58.07;99432.25;2619242;47;20073;-64
2022/05/27 12:08:13;;;;;;;3.83;3.25;;;;;;;18.03;58.18;99417.06;2619752;47;20592;-64
2022/05/27 12:10:48;;;;;;;3.50;3.20;;;;;;;18.39;57.77;99420.69;2620019;54;20026;-65
2022/05/27 12:13:29;;;;;;;3.83;3.03;;;;;;;18.40;57.07;99416.16;2620205;54;20554;-65
2022/05/27 12:16:03;;;;;;;2.90;2.60;;;;;;;18.39;56.68;99422.56;2619927;54;20868;-65
2022/05/27 12:18:38;;;;;;;3.17;2.88;;;;;;;18.24;57.33;99421.09;2620478;54;20596;-65
2022/05/27 12:21:12;;;;;;;3.33;2.70;;;;;;;18.31;57.28;99431.72;2619436;54;20045;-65
2022/05/27 12:23:45;;;;;;;;;;;;;;;18.31;57.61;99423.69;2621150;54;20026;-66
2022/05/27 12:26:15;;;;;;;6.32;3.00;;;;;;;18.47;57.04;99428.41;2621200;54;19961;-65
2022/05/27 12:28:48;;;;;;;3.13;2.90;;;;;;;18.49;56.82;99426.34;2620593;47;20141;-66
2022/05/27 12:31:18;;;;;;;;;;;;;;;18.28;57.06;99424.97;2620949;54;20578;-66
2022/05/27 12:33:48;;;;;;;2.92;2.33;;;;;;;18.53;56.63;99430.19;2620719;54;19950;-66
2022/05/27 12:36:26;;;;;;;3.15;2.70;;;;;;;18.65;56.85;99421.34;2621091;54;20535;-66
2022/05/27 12:38:58;;;;;;;2.67;2.08;;;;;;;18.61;56.95;99428.19;2620478;54;20046;-66